Time;durP1;ratioP1;P1;durP2;ratioP2;P2;SDS_P1;SDS_P2;PMS_P1;PMS_P2;Temp;Humidity;BMP_temperature;BMP_pressure;BME280_temperature;BME280_humidity;BME280_pressure;Samples;Min_cycle;Max_cycle;Signal;HPM_P1;HPM_P2
2023/03/07 00:00:44;;;;;;;7.38;6.22;;;6.30;99.90;;;;;;5093522;28;20149;-75
2023/03/07 00:03:15;;;;;;;8.93;6.65;;;6.30;99.90;;;;;;5059838;28;20384;-75
2023/03/07 00:05:41;;;;;;;8.68;5.45;;;6.20;99.90;;;;;;5076255;28;20036;-75
2023/03/07 00:08:07;;;;;;;7.50;6.13;;;6.30;99.90;;;;;;5076300;28;20024;-75
2023/03/07 00:10:33;;;;;;;7.60;6.05;;;6.30;99.90;;;;;;5076065;28;20028;-75
2023/03/07 00:12:59;;;;;;;8.10;6.32;;;6.30;99.90;;;;;;5075646;28;20036;-75
2023/03/07 00:15:25;;;;;;;8.70;6.35;;;6.30;99.90;;;;;;5043192;28;20310;-75
2023/03/07 00:17:50;;;;;;;8.15;6.35;;;6.20;99.90;;;;;;5076243;28;20502;-75
2023/03/07 00:20:16;;;;;;;10.77;6.53;;;6.20;99.90;;;;;;5094227;28;20051;-75
2023/03/07 00:22:42;;;;;;;8.65;5.95;;;6.20;99.90;;;;;;5094187;28;20433;-75
2023/03/07 00:25:09;;;;;;;7.47;6.00;;;6.20;99.90;;;;;;5094171;28;20039;-75
2023/03/07 00:27:35;;;;;;;10.57;6.35;;;6.20;99.90;;;;;;5094259;28;20123;-75
2023/03/07 00:30:03;;;;;;;8.93;5.72;;;6.20;99.90;;;;;;5075750;28;20034;-74
2023/03/07 00:32:29;;;;;;;6.97;6.13;;;6.20;99.90;;;;;;5072791;28;20512;-75
2023/03/07 00:34:56;;;;;;;6.43;5.55;;;6.20;99.90;;;;;;5073503;28;20086;-75
2023/03/07 00:37:22;;;;;;;7.97;5.57;;;6.20;99.90;;;;;;5056266;28;20476;-75
2023/03/07 00:39:48;;;;;;;8.77;5.70;;;6.30;99.90;;;;;;5074215;28;20034;-75
2023/03/07 00:42:14;;;;;;;7.40;5.47;;;6.30;99.90;;;;;;5073835;28;20056;-75
2023/03/07 00:44:39;;;;;;;8.20;5.35;;;6.30;99.90;;;;;;5073521;28;20039;-75
2023/03/07 00:47:05;;;;;;;8.20;5.80;;;6.30;99.90;;;;;;5072764;28;20029;-75
2023/03/07 00:49:31;;;;;;;8.85;5.63;;;6.30;99.90;;;;;;5073580;28;20066;-75
2023/03/07 00:51:57;;;;;;;7.30;4.60;;;6.20;99.90;;;;;;5076097;28;20032;-75
2023/03/07 00:54:22;;;;;;;6.55;4.70;;;6.20;99.90;;;;;;5078295;28;20539;-75
2023/03/07 00:56:48;;;;;;;7.45;4.55;;;6.20;99.90;;;;;;5079047;28;20504;-75
2023/03/07 00:59:14;;;;;;;8.45;5.40;;;6.20;99.90;;;;;;5072513;28;20559;-75
2023/03/07 01:01:39;;;;;;;11.38;4.93;;;6.20;99.90;;;;;;5073491;28;20032;-76
2023/03/07 01:04:05;;;;;;;7.35;4.97;;;6.30;99.90;;;;;;5073443;28;20111;-75
2023/03/07 01:06:33;;;;;;;7.07;4.80;;;6.30;99.90;;;;;;5073517;28;20060;-75
2023/03/07 01:09:01;;;;;;;8.75;5.68;;;6.30;99.90;;;;;;5073323;28;20024;-76
2023/03/07 01:11:28;;;;;;;9.85;5.90;;;6.30;99.90;;;;;;5072213;28;20025;-76
2023/03/07 01:13:56;;;;;;;11.00;6.28;;;6.30;99.90;;;;;;5055749;28;20359;-76
2023/03/07 01:16:30;;;;;;;11.07;7.20;;;6.20;99.90;;;;;;5073116;28;20086;-79
2023/03/07 01:18:59;;;;;;;11.05;6.80;;;6.20;99.90;;;;;;5071945;28;20020;-79
2023/03/07 01:21:33;;;;;;;12.30;7.63;;;6.30;99.90;;;;;;5072356;28;20028;-79
2023/03/07 01:23:59;;;;;;;10.63;7.93;;;6.30;99.90;;;;;;5073241;28;20346;-79
2023/03/07 01:26:28;;;;;;;10.63;7.82;;;6.40;99.90;;;;;;5073327;28;20054;-79
2023/03/07 01:28:56;;;;;;;13.52;7.97;;;6.40;99.90;;;;;;5071875;28;20426;-80
2023/03/07 01:31:23;;;;;;;15.18;8.60;;;6.40;99.90;;;;;;5071827;28;20048;-78
2023/03/07 01:33:50;;;;;;;16.13;8.70;;;6.40;99.90;;;;;;5072230;28;20523;-79
2023/03/07 01:36:28;;;;;;;13.50;9.52;;;6.40;99.90;;;;;;5072765;28;20054;-79
2023/03/07 01:38:56;;;;;;;13.00;8.88;;;6.40;99.90;;;;;;5055761;28;20489;-79
2023/03/07 01:41:23;;;;;;;12.52;8.77;;;6.50;99.90;;;;;;5073188;28;20020;-79
2023/03/07 01:43:49;;;;;;;14.13;8.73;;;6.50;99.90;;;;;;5073268;28;20016;-79
2023/03/07 01:46:18;;;;;;;12.90;8.85;;;6.50;99.90;;;;;;5072833;28;20023;-79
2023/03/07 01:48:43;;;;;;;11.52;8.63;;;6.50;99.90;;;;;;5071665;28;20032;-79
2023/03/07 01:51:10;;;;;;;15.25;8.85;;;6.60;99.90;;;;;;5072926;28;20445;-79
2023/03/07 01:53:36;;;;;;;15.82;9.50;;;6.60;99.90;;;;;;5072866;28;20033;-78
2023/03/07 01:56:02;;;;;;;10.40;7.63;;;6.50;99.90;;;;;;5054708;28;20036;-79
2023/03/07 01:58:27;;;;;;;14.30;8.43;;;6.60;99.90;;;;;;5054838;28;20496;-78
2023/03/07 02:00:54;;;;;;;13.48;7.50;;;6.50;99.90;;;;;;5071411;28;20143;-81
2023/03/07 02:03:38;;;;;;;12.02;6.63;;;6.50;99.90;;;;;;5071598;28;20029;-79
2023/03/07 02:06:10;;;;;;;12.07;6.68;;;6.40;99.90;;;;;;5072032;28;20116;-79
2023/03/07 02:08:37;;;;;;;10.30;6.10;;;6.40;99.90;;;;;;5071978;28;20078;-81
2023/03/07 02:11:04;;;;;;;9.50;6.30;;;6.30;99.90;;;;;;5072457;28;20024;-79
2023/03/07 02:13:30;;;;;;;8.55;6.32;;;6.40;99.90;;;;;;5073962;28;20024;-80
2023/03/07 02:15:58;;;;;;;9.30;6.13;;;6.40;99.90;;;;;;5075811;28;20068;-79
2023/03/07 02:18:26;;;;;;;11.77;6.05;;;6.50;99.90;;;;;;5073198;28;20024;-79
2023/03/07 02:21:03;;;;;;;11.02;6.78;;;6.40;99.90;;;;;;5071509;28;20028;-80
2023/03/07 02:23:57;;;;;;;12.60;6.97;;;6.40;99.90;;;;;;5073342;28;20542;-78
2023/03/07 02:26:29;;;;;;;10.60;7.15;;;6.30;99.90;;;;;;5075465;28;20469;-79
2023/03/07 02:28:55;;;;;;;10.65;6.75;;;6.30;99.90;;;;;;5075685;28;20388;-79
2023/03/07 02:31:21;;;;;;;10.45;6.93;;;6.30;99.90;;;;;;5074780;28;20067;-80
2023/03/07 02:33:48;;;;;;;9.05;6.22;;;6.20;99.90;;;;;;5076227;28;20025;-79
2023/03/07 02:36:19;;;;;;;9.52;6.50;;;6.20;99.90;;;;;;5058847;28;20037;-79
2023/03/07 02:38:47;;;;;;;8.38;6.07;;;6.20;99.90;;;;;;5075410;28;20438;-78
2023/03/07 02:41:15;;;;;;;9.95;6.95;;;6.10;99.90;;;;;;5076051;28;20020;-78
2023/03/07 02:43:41;;;;;;;12.30;6.80;;;6.10;99.90;;;;;;5076032;28;20111;-79
2023/03/07 02:46:07;;;;;;;12.45;7.75;;;6.20;99.90;;;;;;5074475;28;20123;-79
2023/03/07 02:48:33;;;;;;;11.05;7.65;;;6.20;99.90;;;;;;5074962;28;20029;-81
2023/03/07 02:50:59;;;;;;;11.85;7.53;;;6.20;99.90;;;;;;5075750;28;20465;-78
2023/03/07 02:53:25;;;;;;;10.50;7.35;;;6.20;99.90;;;;;;5057577;28;20028;-79
2023/03/07 02:55:51;;;;;;;10.20;6.80;;;6.30;99.90;;;;;;5075791;28;20079;-79
2023/03/07 02:58:16;;;;;;;9.80;5.70;;;6.20;99.90;;;;;;5076441;28;20035;-79
2023/03/07 03:00:42;;;;;;;9.40;5.25;;;6.20;99.90;;;;;;5058243;28;20124;-79
2023/03/07 03:03:08;;;;;;;11.63;5.57;;;6.10;99.90;;;;;;5058139;28;20028;-79
2023/03/07 03:05:34;;;;;;;10.40;5.50;;;6.10;99.90;;;;;;5076115;28;20119;-79
2023/03/07 03:07:59;;;;;;;8.57;5.50;;;6.10;99.90;;;;;;5075126;28;20472;-78
2023/03/07 03:10:25;;;;;;;8.30;5.00;;;6.10;99.90;;;;;;5058048;28;20037;-78
2023/03/07 03:12:51;;;;;;;8.35;5.80;;;6.10;99.90;;;;;;5058128;28;20039;-78
2023/03/07 03:15:16;;;;;;;11.45;4.55;;;6.10;99.90;;;;;;5041315;28;20537;-79
2023/03/07 03:17:43;;;;;;;10.18;5.25;;;6.10;99.90;;;;;;5058088;28;20036;-80
2023/03/07 03:20:11;;;;;;;7.70;4.22;;;6.10;99.90;;;;;;5074262;28;20120;-78
2023/03/07 03:22:38;;;;;;;9.27;4.45;;;6.10;99.90;;;;;;5075429;28;20029;-78
2023/03/07 03:25:06;;;;;;;8.40;4.47;;;6.10;99.90;;;;;;5075646;28;20039;-79
2023/03/07 03:27:32;;;;;;;8.18;4.07;;;6.20;99.90;;;;;;5041681;28;20111;-79
2023/03/07 03:29:58;;;;;;;10.00;4.07;;;6.10;99.90;;;;;;5058484;28;20468;-79
2023/03/07 03:32:23;;;;;;;11.48;4.25;;;6.20;99.90;;;;;;5077509;28;20056;-79
2023/03/07 03:34:50;;;;;;;8.85;3.75;;;6.20;99.90;;;;;;5077243;28;20039;-79
2023/03/07 03:37:16;;;;;;;14.13;4.57;;;6.20;99.90;;;;;;5061322;28;20089;-79
2023/03/07 03:39:41;;;;;;;11.07;4.00;;;6.20;99.90;;;;;;5095356;28;20024;-78
2023/03/07 03:42:07;;;;;;;9.95;4.72;;;6.20;99.90;;;;;;5060800;28;20427;-79
2023/03/07 03:44:33;;;;;;;11.20;4.70;;;6.30;99.90;;;;;;5077346;28;20032;-79
2023/03/07 03:46:59;;;;;;;12.25;4.30;;;6.30;99.90;;;;;;5095784;28;20537;-79
2023/03/07 03:49:25;;;;;;;8.05;4.40;;;6.30;99.90;;;;;;5077237;28;20415;-80
2023/03/07 03:51:50;;;;;;;9.77;4.88;;;6.30;99.90;;;;;;5061125;28;20024;-79
2023/03/07 03:54:16;;;;;;;8.43;4.50;;;6.30;99.90;;;;;;5095040;28;20488;-79
2023/03/07 03:56:42;;;;;;;13.35;5.22;;;6.30;99.90;;;;;;5095504;28;20036;-79
2023/03/07 03:59:07;;;;;;;12.35;5.35;;;6.40;99.90;;;;;;5043906;28;20024;-81
2023/03/07 04:01:33;;;;;;;11.35;4.88;;;6.30;99.90;;;;;;5076945;28;20056;-80
2023/03/07 04:03:59;;;;;;;8.43;4.47;;;6.40;99.90;;;;;;5076984;28;20124;-78
2023/03/07 04:06:26;;;;;;;13.23;5.05;;;6.30;99.90;;;;;;5043685;28;20024;-78
2023/03/07 04:08:53;;;;;;;11.30;5.57;;;6.30;99.90;;;;;;5077222;28;20433;-79
2023/03/07 04:11:19;;;;;;;11.75;5.35;;;6.30;99.90;;;;;;5095093;28;20185;-84
2023/03/07 04:13:45;;;;;;;11.23;4.97;;;6.30;99.90;;;;;;5076648;28;20435;-78
2023/03/07 04:16:12;;;;;;;9.35;5.50;;;6.30;99.90;;;;;;5095180;28;20032;-78
2023/03/07 04:18:38;;;;;;;12.63;6.03;;;6.30;99.90;;;;;;5077116;28;20028;-79
2023/03/07 04:21:05;;;;;;;10.38;6.30;;;6.40;99.90;;;;;;5078496;28;20158;-79
2023/03/07 04:23:31;;;;;;;18.85;6.97;;;6.40;99.90;;;;;;5077416;28;20028;-79
2023/03/07 04:25:59;;;;;;;12.85;7.20;;;6.30;99.90;;;;;;5077642;28;20095;-81
2023/03/07 04:34:50;;;;;;;13.55;7.60;;;6.40;99.90;;;;;;5093744;28;20112;-80
2023/03/07 04:37:15;;;;;;;16.45;8.00;;;6.50;99.90;;;;;;5077242;28;20064;-81
2023/03/07 04:39:41;;;;;;;13.52;7.75;;;6.40;99.90;;;;;;5094831;28;20448;-80
2023/03/07 04:42:07;;;;;;;14.02;6.70;;;6.40;99.90;;;;;;5076279;28;20028;-80
2023/03/07 04:44:32;;;;;;;13.30;6.63;;;6.40;99.90;;;;;;5094973;28;20047;-80
2023/03/07 04:46:58;;;;;;;20.20;7.47;;;6.40;99.90;;;;;;5076388;28;20032;-80
2023/03/07 04:49:24;;;;;;;13.88;7.68;;;6.40;99.90;;;;;;5094788;28;20457;-80
2023/03/07 04:51:49;;;;;;;11.80;5.85;;;6.40;99.90;;;;;;5076585;28;20448;-80
2023/03/07 04:54:15;;;;;;;12.77;6.55;;;6.30;99.90;;;;;;5094193;28;20111;-80
2023/03/07 04:56:40;;;;;;;10.75;6.10;;;6.30;99.90;;;;;;5076452;28;20056;-80
2023/03/07 04:59:06;;;;;;;9.55;5.20;;;6.40;99.90;;;;;;5076107;28;20074;-80
2023/03/07 05:01:32;;;;;;;13.18;5.80;;;6.40;99.90;;;;;;5094179;28;20028;-81
2023/03/07 05:03:57;;;;;;;8.10;5.25;;;6.40;99.90;;;;;;5076400;28;20433;-83
2023/03/07 05:06:23;;;;;;;15.70;6.38;;;6.50;99.90;;;;;;5076318;28;20369;-81
2023/03/07 05:08:49;;;;;;;11.20;5.85;;;6.50;99.90;;;;;;5076073;28;20032;-80
2023/03/07 05:11:15;;;;;;;11.10;5.68;;;6.50;99.90;;;;;;5076490;28;20024;-81
2023/03/07 05:13:40;;;;;;;10.02;4.70;;;6.50;99.90;;;;;;5060010;28;20422;-81
2023/03/07 05:16:06;;;;;;;10.00;4.60;;;6.50;99.90;;;;;;5076252;28;20543;-81
2023/03/07 05:18:32;;;;;;;16.38;5.45;;;6.50;99.90;;;;;;5075701;28;20032;-80
2023/03/07 05:20:57;;;;;;;13.60;4.90;;;6.50;99.90;;;;;;5075864;28;20487;-81
2023/03/07 05:23:23;;;;;;;11.82;5.13;;;6.50;99.90;;;;;;5075721;28;20028;-81
2023/03/07 05:25:49;;;;;;;13.43;5.28;;;6.50;99.90;;;;;;5042383;28;20036;-80
2023/03/07 05:28:15;;;;;;;13.25;5.78;;;6.50;99.90;;;;;;5075963;28;20030;-80
2023/03/07 05:30:42;;;;;;;10.70;5.75;;;6.50;99.90;;;;;;5076068;28;20109;-81
2023/03/07 05:33:08;;;;;;;9.15;5.57;;;6.50;99.90;;;;;;5058814;28;20028;-80
2023/03/07 05:35:33;;;;;;;12.23;5.65;;;6.50;99.90;;;;;;5071762;28;20071;-81
2023/03/07 05:37:59;;;;;;;13.60;6.13;;;6.50;99.90;;;;;;5056456;28;20126;-81
2023/03/07 05:40:25;;;;;;;9.93;6.03;;;6.40;99.90;;;;;;5056323;28;20028;-81
2023/03/07 05:42:50;;;;;;;14.07;5.60;;;6.30;99.90;;;;;;5055568;28;20499;-81
2023/03/07 05:45:16;;;;;;;12.32;5.10;;;6.30;99.90;;;;;;5073727;28;20043;-80
2023/03/07 05:47:42;;;;;;;12.35;5.32;;;6.20;99.90;;;;;;5073244;28;20103;-81
2023/03/07 05:50:08;;;;;;;8.75;4.53;;;6.20;99.90;;;;;;5056028;28;20419;-81
2023/03/07 05:52:34;;;;;;;12.20;4.70;;;6.20;99.90;;;;;;5074238;28;20052;-81
2023/03/07 05:55:00;;;;;;;9.32;3.65;;;6.20;99.90;;;;;;5072495;28;20516;-81
2023/03/07 05:57:25;;;;;;;6.80;3.08;;;6.10;99.90;;;;;;5056306;28;20579;-80
2023/03/07 05:59:51;;;;;;;6.13;2.00;;;6.00;99.90;;;;;;5061255;28;20024;-80
2023/03/07 06:02:17;;;;;;;5.93;2.35;;;6.00;99.90;;;;;;5060773;28;20085;-81
2023/03/07 06:04:43;;;;;;;6.85;2.92;;;5.90;99.90;;;;;;5077124;28;20127;-79
2023/03/07 06:07:08;;;;;;;5.13;2.70;;;6.00;99.90;;;;;;5076860;28;20032;-80
2023/03/07 06:09:34;;;;;;;7.63;2.28;;;6.00;99.90;;;;;;5060653;28;20036;-80
2023/03/07 06:11:59;;;;;;;6.57;2.28;;;6.00;99.90;;;;;;5059809;28;20453;-81
2023/03/07 06:14:25;;;;;;;8.38;3.25;;;6.00;99.90;;;;;;5076117;28;20048;-80
2023/03/07 06:16:51;;;;;;;4.57;2.15;;;5.90;99.90;;;;;;5059042;28;20033;-79
2023/03/07 06:19:16;;;;;;;6.82;2.17;;;5.90;99.90;;;;;;5059005;28;20484;-80
2023/03/07 06:21:43;;;;;;;9.43;2.55;;;5.90;99.90;;;;;;5060317;28;20035;-81
2023/03/07 06:24:09;;;;;;;8.77;2.08;;;6.00;99.90;;;;;;5076079;28;20041;-80
2023/03/07 06:26:34;;;;;;;8.13;1.80;;;6.00;99.90;;;;;;5075846;28;20103;-82
2023/03/07 06:29:00;;;;;;;9.63;2.42;;;6.00;99.90;;;;;;5075488;28;20082;-81
2023/03/07 06:31:27;;;;;;;3.05;1.10;;;6.00;99.90;;;;;;5075973;28;20025;-80
2023/03/07 06:33:52;;;;;;;3.55;0.80;;;6.00;99.90;;;;;;5077947;28;20135;-80
2023/03/07 06:36:20;;;;;;;4.03;0.52;;;5.90;99.90;;;;;;5079373;28;20140;-80
2023/03/07 06:38:46;;;;;;;2.47;0.30;;;5.70;99.90;;;;;;5080011;28;20082;-80
2023/03/07 06:41:12;;;;;;;3.40;0.50;;;5.60;99.90;;;;;;5098568;28;20116;-80
2023/03/07 06:43:38;;;;;;;5.00;0.40;;;5.50;99.90;;;;;;5096600;28;20431;-84
2023/03/07 06:46:04;;;;;;;3.53;0.30;;;5.50;99.90;;;;;;5079069;28;20115;-84
2023/03/07 06:48:30;;;;;;;4.55;0.30;;;5.50;99.90;;;;;;5062465;28;20035;-84
2023/03/07 06:50:55;;;;;;;3.05;0.45;;;5.60;99.90;;;;;;5079227;28;20028;-82
2023/03/07 06:53:21;;;;;;;2.33;0.20;;;5.60;99.90;;;;;;5078884;28;20449;-83
2023/03/07 06:55:48;;;;;;;2.47;0.20;;;5.60;99.90;;;;;;5078482;28;20044;-81
2023/03/07 06:58:14;;;;;;;2.50;0.20;;;5.60;99.90;;;;;;5078480;28;20142;-83
2023/03/07 07:00:40;;;;;;;6.78;0.30;;;5.70;99.90;;;;;;5062233;28;20051;-77
2023/03/07 07:03:05;;;;;;;4.60;0.20;;;5.80;99.90;;;;;;5078266;28;20024;-77
2023/03/07 07:05:31;;;;;;;2.90;0.20;;;5.80;99.90;;;;;;5061490;28;20054;-77
2023/03/07 07:07:57;;;;;;;4.68;0.50;;;5.90;99.90;;;;;;5078477;28;20039;-77
2023/03/07 07:10:22;;;;;;;4.00;0.20;;;5.90;99.90;;;;;;5095505;28;20453;-77
2023/03/07 07:12:48;;;;;;;3.88;0.25;;;5.80;99.90;;;;;;5061490;28;20036;-76
2023/03/07 07:15:14;;;;;;;3.83;0.20;;;5.90;99.90;;;;;;5078041;28;20093;-76
2023/03/07 07:17:39;;;;;;;2.72;0.55;;;5.90;99.90;;;;;;5095744;28;20066;-79
2023/03/07 07:20:06;;;;;;;5.10;1.08;;;6.00;99.90;;;;;;5061233;28;20028;-80
2023/03/07 07:22:33;;;;;;;1.70;0.20;;;6.10;99.90;;;;;;5078200;28;20103;-77
2023/03/07 07:24:59;;;;;;;2.63;0.20;;;6.10;99.90;;;;;;5096023;28;20190;-79
2023/03/07 07:27:24;;;;;;;1.92;0.30;;;6.20;99.90;;;;;;5095716;28;20031;-75
2023/03/07 07:29:51;;;;;;;3.78;1.15;;;6.10;99.90;;;;;;5095502;28;20028;-76
2023/03/07 07:32:16;;;;;;;2.28;0.20;;;6.10;99.90;;;;;;5096340;28;20030;-75
2023/03/07 07:34:42;;;;;;;1.90;0.17;;;6.20;99.90;;;;;;5095798;28;20127;-76
2023/03/07 07:37:08;;;;;;;4.50;0.30;;;6.20;99.90;;;;;;5077973;28;20082;-76
2023/03/07 07:39:33;;;;;;;1.17;0.10;;;6.20;99.90;;;;;;5095364;28;20111;-76
2023/03/07 07:41:59;;;;;;;2.00;0.30;;;6.30;99.90;;;;;;5095851;28;20364;-75
2023/03/07 07:44:29;;;;;;;3.67;0.22;;;6.20;99.90;;;;;;5077313;28;20040;-76
2023/03/07 07:46:55;;;;;;;0.82;0.10;;;6.30;99.90;;;;;;5095770;28;20020;-75
2023/03/07 07:49:21;;;;;;;4.10;0.20;;;6.30;99.90;;;;;;5095058;28;20028;-74
2023/03/07 07:51:47;;;;;;;2.88;0.20;;;6.40;99.90;;;;;;5077325;28;20024;-75
2023/03/07 07:54:13;;;;;;;2.85;0.32;;;6.40;99.90;;;;;;5095526;28;20098;-75
2023/03/07 07:56:40;;;;;;;2.00;0.20;;;6.40;99.90;;;;;;5095349;28;20036;-73
2023/03/07 07:59:05;;;;;;;1.95;0.20;;;6.40;99.90;;;;;;5077253;28;20073;-73
2023/03/07 08:01:31;;;;;;;3.30;0.57;;;6.50;99.90;;;;;;5094929;28;20375;-73
2023/03/07 08:03:57;;;;;;;2.80;0.30;;;6.40;99.90;;;;;;5076957;28;20024;-74
2023/03/07 08:06:26;;;;;;;2.05;0.20;;;6.40;99.90;;;;;;5077115;28;20476;-74
2023/03/07 08:08:51;;;;;;;3.53;0.43;;;6.50;99.90;;;;;;5095422;28;20106;-75
2023/03/07 08:11:19;;;;;;;3.05;0.25;;;6.50;99.90;;;;;;5095363;28;20063;-76
2023/03/07 08:13:45;;;;;;;2.83;0.20;;;6.40;99.90;;;;;;5095008;28;20039;-75
2023/03/07 08:16:19;;;;;;;2.28;0.28;;;6.40;99.90;;;;;;5094663;28;20496;-75
2023/03/07 08:18:54;;;;;;;2.38;0.20;;;6.40;99.90;;;;;;5095228;28;20024;-76
2023/03/07 08:21:20;;;;;;;2.70;0.20;;;6.40;99.90;;;;;;5093796;28;20039;-75
2023/03/07 08:23:46;;;;;;;3.17;0.20;;;6.40;99.90;;;;;;5094733;28;20036;-76
2023/03/07 08:26:12;;;;;;;2.70;0.32;;;6.50;99.90;;;;;;5095139;28;20034;-75
2023/03/07 08:28:40;;;;;;;3.55;0.30;;;6.50;99.90;;;;;;5076586;28;20024;-76
2023/03/07 08:31:18;;;;;;;4.13;0.38;;;6.50;99.90;;;;;;5094620;28;20020;-76
2023/03/07 08:33:46;;;;;;;2.05;0.50;;;6.40;99.90;;;;;;5094195;28;20050;-75
2023/03/07 08:36:11;;;;;;;4.18;0.90;;;6.50;99.90;;;;;;5094798;28;20067;-75
2023/03/07 08:38:37;;;;;;;4.07;1.05;;;6.50;99.90;;;;;;5076545;28;20040;-75
2023/03/07 08:41:04;;;;;;;3.78;1.10;;;6.40;99.90;;;;;;5094037;28;20028;-76
2023/03/07 08:43:32;;;;;;;2.40;1.20;;;6.40;99.90;;;;;;5059713;28;20028;-76
2023/03/07 08:45:58;;;;;;;6.28;1.40;;;6.20;99.90;;;;;;5095121;28;20080;-75
2023/03/07 08:48:24;;;;;;;4.22;1.67;;;6.20;99.90;;;;;;5076141;28;20024;-78
2023/03/07 08:50:50;;;;;;;3.97;1.25;;;6.20;99.90;;;;;;5076143;28;20035;-75
2023/03/07 08:53:16;;;;;;;3.60;1.20;;;6.20;99.90;;;;;;5094541;28;20036;-75
2023/03/07 08:55:44;;;;;;;4.05;1.35;;;6.20;99.90;;;;;;5076207;28;20502;-75
2023/03/07 08:58:11;;;;;;;4.07;1.48;;;6.10;99.90;;;;;;5094171;28;20032;-76
2023/03/07 09:00:37;;;;;;;3.33;1.40;;;6.00;99.90;;;;;;5076505;28;20036;-76
2023/03/07 09:03:04;;;;;;;2.35;1.40;;;6.00;99.90;;;;;;5094235;28;20023;-76
2023/03/07 09:05:30;;;;;;;3.60;1.60;;;6.10;99.90;;;;;;5094161;28;20452;-75
2023/03/07 09:07:56;;;;;;;9.60;1.88;;;6.10;99.90;;;;;;5093721;28;20078;-75
2023/03/07 09:10:22;;;;;;;3.53;2.20;;;6.10;99.90;;;;;;5094160;28;20445;-75
2023/03/07 09:12:49;;;;;;;4.13;1.52;;;6.10;99.90;;;;;;5094830;28;20457;-75
2023/03/07 09:15:16;;;;;;;4.20;2.03;;;6.00;99.90;;;;;;5094199;28;20097;-75
2023/03/07 09:17:41;;;;;;;2.85;1.75;;;6.00;99.90;;;;;;5093697;28;20028;-75
2023/03/07 09:20:09;;;;;;;2.45;1.73;;;6.00;99.90;;;;;;5076559;28;20449;-75
2023/03/07 09:22:34;;;;;;;2.13;1.60;;;6.00;99.90;;;;;;5075840;28;20092;-75
2023/03/07 09:25:00;;;;;;;2.47;1.65;;;6.10;99.90;;;;;;5093673;28;20036;-75
2023/03/07 09:27:26;;;;;;;4.25;1.65;;;6.10;99.90;;;;;;5076171;28;20479;-74
2023/03/07 09:29:51;;;;;;;4.35;1.60;;;6.00;99.90;;;;;;5093614;28;20517;-75
2023/03/07 09:32:17;;;;;;;2.75;1.30;;;6.00;99.90;;;;;;5093403;28;20043;-75
2023/03/07 09:34:42;;;;;;;2.83;1.55;;;6.00;99.90;;;;;;5093606;28;20058;-75
2023/03/07 09:37:09;;;;;;;3.20;1.60;;;6.00;99.90;;;;;;5042114;28;20074;-75
2023/03/07 09:39:35;;;;;;;3.15;1.40;;;6.00;99.90;;;;;;5075538;28;20107;-76
2023/03/07 09:42:39;;;;;;;4.57;1.90;;;6.00;99.90;;;;;;5075060;28;20064;-75
2023/03/07 09:45:28;;;;;;;4.03;2.00;;;5.90;99.90;;;;;;5075500;28;20024;-76
2023/03/07 09:48:15;;;;;;;8.13;2.40;;;5.90;99.90;;;;;;5093434;28;20425;-74
2023/03/07 09:50:57;;;;;;;6.72;2.65;;;6.00;99.90;;;;;;5075021;28;20027;-75
2023/03/07 09:53:34;;;;;;;5.28;2.28;;;6.00;99.90;;;;;;5093947;28;20024;-75
2023/03/07 09:56:04;;;;;;;9.77;3.50;;;6.10;99.90;;;;;;5093862;28;20043;-75
2023/03/07 09:58:30;;;;;;;4.43;2.47;;;6.10;99.90;;;;;;5075954;28;20079;-75
2023/03/07 10:01:00;;;;;;;6.00;2.78;;;6.10;99.90;;;;;;5075332;28;20059;-75
2023/03/07 10:03:40;;;;;;;5.90;2.83;;;6.00;99.90;;;;;;5093423;28;20024;-75
2023/03/07 10:06:24;;;;;;;9.43;3.35;;;5.90;99.90;;;;;;5093780;28;20052;-75
2023/03/07 10:08:50;;;;;;;7.88;2.45;;;5.90;99.90;;;;;;5093446;28;20039;-75
2023/03/07 10:11:31;;;;;;;7.30;1.92;;;5.90;99.90;;;;;;5075097;28;20032;-75
2023/03/07 10:14:21;;;;;;;6.20;1.83;;;5.80;99.90;;;;;;5093188;28;20028;-77
2023/03/07 10:17:06;;;;;;;2.30;1.60;;;5.70;99.90;;;;;;5075156;28;20040;-75
2023/03/07 10:19:53;;;;;;;3.17;1.58;;;5.70;99.90;;;;;;5093567;28;20035;-75
2023/03/07 10:22:26;;;;;;;2.45;1.73;;;5.60;99.90;;;;;;5093195;28;20332;-74
2023/03/07 10:25:09;;;;;;;4.40;2.17;;;5.60;99.90;;;;;;5093398;28;20059;-75
2023/03/07 10:27:36;;;;;;;3.92;2.00;;;5.60;99.90;;;;;;5075455;28;20390;-75
2023/03/07 10:30:15;;;;;;;4.22;2.30;;;5.60;99.90;;;;;;5092998;28;20496;-75
2023/03/07 10:32:50;;;;;;;6.60;2.17;;;5.70;99.90;;;;;;5075667;28;20063;-75
2023/03/07 10:35:19;;;;;;;6.18;2.35;;;5.70;99.90;;;;;;5074933;28;20058;-75
2023/03/07 10:38:16;;;;;;;4.03;1.70;;;5.70;99.90;;;;;;5075083;28;20025;-74
2023/03/07 10:40:45;;;;;;;4.93;1.90;;;5.60;99.90;;;;;;5075601;28;20098;-75
2023/03/07 10:43:20;;;;;;;3.35;1.88;;;5.70;99.90;;;;;;5093151;28;20481;-74
2023/03/07 10:45:45;;;;;;;2.65;1.80;;;5.70;99.90;;;;;;5095989;28;20024;-75
2023/03/07 10:48:18;;;;;;;3.72;1.83;;;5.70;99.90;;;;;;5096465;28;20031;-75
2023/03/07 10:51:02;;;;;;;4.03;1.90;;;5.70;99.90;;;;;;5078783;28;20035;-75
2023/03/07 10:53:35;;;;;;;2.53;1.58;;;5.70;99.90;;;;;;5096826;28;20035;-73
2023/03/07 10:56:15;;;;;;;3.40;1.65;;;5.70;99.90;;;;;;5077845;28;20082;-73
2023/03/07 10:59:23;;;;;;;2.10;1.42;;;5.60;99.90;;;;;;5096411;28;20035;-79
2023/03/07 11:01:55;;;;;;;3.42;1.80;;;5.70;99.90;;;;;;4998442;28;20030;-77
2023/03/07 11:04:23;;;;;;;2.10;1.40;;;5.90;99.90;;;;;;5014422;28;20045;-74
2023/03/07 11:06:57;;;;;;;2.28;1.50;;;5.90;99.90;;;;;;5042164;28;20032;-77
2023/03/07 11:09:29;;;;;;;2.28;0.80;;;5.90;99.90;;;;;;5078535;28;20031;-78
2023/03/07 11:12:09;;;;;;;2.65;1.00;;;5.80;99.90;;;;;;5077946;28;20024;-76
2023/03/07 11:14:52;;;;;;;4.65;0.80;;;5.80;99.90;;;;;;5096822;28;20035;-79
2023/03/07 11:17:22;;;;;;;2.15;0.40;;;5.80;99.90;;;;;;5096353;28;20031;-78
2023/03/07 11:19:52;;;;;;;2.35;0.70;;;5.70;99.90;;;;;;5096537;28;20024;-78
2023/03/07 11:22:28;;;;;;;3.30;0.60;;;5.70;99.90;;;;;;5077979;28;20024;-78
2023/03/07 11:24:59;;;;;;;2.45;0.65;;;5.70;99.90;;;;;;5077984;28;20028;-77
2023/03/07 11:27:36;;;;;;;2.35;0.55;;;5.70;99.90;;;;;;5096363;28;20058;-78
2023/03/07 11:30:08;;;;;;;3.53;0.60;;;5.60;99.90;;;;;;5095658;28;20028;-77
2023/03/07 11:32:38;;;;;;;2.95;0.63;;;5.70;99.90;;;;;;5095636;28;20028;-76
2023/03/07 11:35:18;;;;;;;2.53;0.57;;;5.80;99.90;;;;;;5095559;28;20123;-76
2023/03/07 11:37:58;;;;;;;1.75;0.50;;;5.80;99.90;;;;;;5077704;28;20028;-75
2023/03/07 11:40:30;;;;;;;6.40;1.05;;;5.80;99.90;;;;;;5095780;28;20034;-75
2023/03/07 11:43:15;;;;;;;4.17;0.80;;;5.80;99.90;;;;;;5078122;28;20055;-76
2023/03/07 11:46:06;;;;;;;3.88;0.98;;;5.80;99.90;;;;;;5095493;28;20039;-75
2023/03/07 11:49:04;;;;;;;4.43;0.70;;;5.80;99.90;;;;;;5095307;28;20354;-75
2023/03/07 11:52:11;;;;;;;2.50;0.40;;;5.90;99.90;;;;;;5095210;28;20020;-76
2023/03/07 11:54:42;;;;;;;1.98;0.50;;;6.00;99.90;;;;;;5077126;28;20059;-76
2023/03/07 11:57:45;;;;;;;2.55;0.65;;;6.00;99.90;;;;;;5095535;28;20028;-77
2023/03/07 12:00:25;;;;;;;2.63;0.70;;;6.00;99.90;;;;;;5095083;28;20056;-76
2023/03/07 12:03:09;;;;;;;1.88;0.60;;;6.00;99.90;;;;;;5077633;28;20039;-77
2023/03/07 12:05:53;;;;;;;1.65;0.50;;;6.00;99.90;;;;;;5077679;28;20165;-77
2023/03/07 12:08:42;;;;;;;1.70;0.50;;;5.90;99.90;;;;;;5077299;28;20032;-77
2023/03/07 12:11:31;;;;;;;3.35;1.15;;;5.90;99.90;;;;;;5095258;28;20024;-77
2023/03/07 12:14:03;;;;;;;3.90;1.00;;;5.90;99.90;;;;;;5077691;28;20020;-77
2023/03/07 12:16:37;;;;;;;1.55;0.82;;;5.90;99.90;;;;;;5095001;28;20110;-75
2023/03/07 12:19:18;;;;;;;4.35;0.90;;;6.00;99.90;;;;;;5094695;28;20059;-76
2023/03/07 12:22:05;;;;;;;2.72;1.35;;;6.10;99.90;;;;;;5095242;28;20051;-77
2023/03/07 12:24:37;;;;;;;3.10;0.93;;;6.20;99.90;;;;;;5095074;28;20032;-77
2023/03/07 12:27:17;;;;;;;2.75;0.73;;;6.20;99.90;;;;;;5094909;28;20028;-78
2023/03/07 12:29:52;;;;;;;11.13;5.65;;;6.20;99.90;;;;;;5095043;28;20111;-78
2023/03/07 12:32:25;;;;;;;3.17;1.65;;;6.10;99.90;;;;;;5076652;28;20028;-79
2023/03/07 12:35:06;;;;;;;9.05;4.43;;;6.10;99.90;;;;;;5073228;28;20071;-78
2023/03/07 12:37:52;;;;;;;6.68;3.15;;;5.90;99.90;;;;;;5074450;28;20035;-78
2023/03/07 12:40:31;;;;;;;2.10;1.20;;;5.90;99.90;;;;;;5073267;28;20120;-80
2023/03/07 12:43:06;;;;;;;3.85;2.50;;;5.90;99.90;;;;;;5074913;28;20029;-84
2023/03/07 12:45:47;;;;;;;6.50;2.90;;;5.90;99.90;;;;;;5074872;28;20040;-85
2023/03/07 12:48:35;;;;;;;4.00;1.58;;;5.90;99.90;;;;;;5075371;28;20036;-85
2023/03/07 12:51:21;;;;;;;9.68;4.28;;;5.80;99.90;;;;;;5073663;28;20123;-84
2023/03/07 12:53:49;;;;;;;7.53;4.20;;;5.90;99.90;;;;;;5074590;28;20024;-84
2023/03/07 12:56:31;;;;;;;8.80;4.45;;;5.90;99.90;;;;;;5073078;28;20033;-84
2023/03/07 12:59:12;;;;;;;4.65;1.90;;;5.90;99.90;;;;;;5073802;28;20025;-83
2023/03/07 13:01:53;;;;;;;11.20;4.38;;;5.90;99.90;;;;;;5073939;28;20076;-84
2023/03/07 13:04:35;;;;;;;10.52;4.82;;;5.80;99.90;;;;;;5075034;28;20107;-85
2023/03/07 13:07:17;;;;;;;13.13;6.93;;;5.80;99.90;;;;;;5073802;28;20075;-84
2023/03/07 13:09:45;;;;;;;8.10;3.30;;;5.90;99.90;;;;;;5075346;28;20082;-85
2023/03/07 13:12:22;;;;;;;3.30;1.13;;;5.90;99.90;;;;;;5074813;28;20040;-84